Time;durP1;ratioP1;P1;durP2;ratioP2;P2;SDS_P1;SDS_P2;PMS_P1;PMS_P2;Temp;Humidity;BMP_temperature;BMP_pressure;BME280_temperature;BME280_humidity;BME280_pressure;Samples;Min_cycle;Max_cycle;Signal;HPM_P1;HPM_P2
2022/07/14 00:00:16;;;;;;;;;;;;;;;20.67;40.72;99950.06;3150493;28;19942;-63
2022/07/14 00:01:49;;;;;;;;;;;;;;;20.68;40.92;99951.72;3151272;28;19936;-64
2022/07/14 00:03:21;;;;;;;;;;;;;;;20.67;40.87;99946.53;3141770;28;19928;-64
2022/07/14 00:04:51;;;;;;;;;;;;;;;20.64;41.07;99950.28;3153505;28;19982;-63
2022/07/14 00:06:23;;;;;;;;;;;;;;;20.65;40.80;99954.63;3154616;28;20087;-63
2022/07/14 00:07:54;;;;;;;;;;;;;;;20.65;40.80;99954.63;3154236;28;19928;-63
2022/07/14 00:09:26;;;;;;;;;;;;;;;20.66;40.78;99958.94;3154498;28;19928;-63
2022/07/14 00:10:57;;;;;;;;;;;;;;;20.71;40.36;99955.09;3154446;28;19928;-63
2022/07/14 00:12:29;;;;;;;;;;;;;;;20.73;40.56;99955.78;3154300;28;20341;-63
2022/07/14 00:14:00;;;;;;;;;;;;;;;20.73;40.68;99958.41;3154502;28;20408;-63
2022/07/14 00:15:32;;;;;;;;;;;;;;;20.71;40.84;99955.91;3154382;28;20369;-64
2022/07/14 00:17:05;;;;;;;;;;;;;;;20.70;40.75;99958.69;3153933;28;20329;-63
2022/07/14 00:18:43;;;;;;;;;;;;;;;20.69;40.86;99960.50;3154500;28;19928;-63
2022/07/14 00:20:14;;;;;;;;;;;;;;;20.64;40.87;99955.56;3154121;28;19928;-63
2022/07/14 00:21:46;;;;;;;;;;;;;;;20.62;40.99;99962.81;3154301;28;20029;-63
2022/07/14 00:23:16;;;;;;;;;;;;;;;20.59;41.30;99959.59;3154114;28;19935;-62
2022/07/14 00:24:48;;;;;;;;;;;;;;;20.56;41.17;99968.63;3154458;28;19928;-63
2022/07/14 00:26:20;;;;;;;;;;;;;;;20.54;41.32;99962.63;3153933;28;19975;-63
2022/07/14 00:27:50;;;;;;;;;;;;;;;20.51;41.46;99962.03;3154409;28;20017;-63
2022/07/14 00:29:22;;;;;;;;;;;;;;;20.47;41.52;99964.09;3154053;28;20316;-63
2022/07/14 00:30:53;;;;;;;;;;;;;;;20.44;41.45;99956.41;3153707;28;19928;-63
2022/07/14 00:32:27;;;;;;;;;;;;;;;20.41;41.50;99960.16;3154436;28;19928;-63
2022/07/14 00:33:59;;;;;;;;;;;;;;;20.40;41.40;99954.97;3154376;28;19928;-63
2022/07/14 00:35:31;;;;;;;;;;;;;;;20.42;41.50;99953.88;3143811;28;19929;-65
2022/07/14 00:37:02;;;;;;;;;;;;;;;20.40;41.62;99955.81;3151999;28;19932;-63
2022/07/14 00:38:33;;;;;;;;;;;;;;;20.40;41.45;99960.25;3159396;28;19927;-63
2022/07/14 00:40:06;;;;;;;;;;;;;;;20.44;41.38;99953.78;3159602;28;19939;-63
2022/07/14 00:41:37;;;;;;;;;;;;;;;20.42;41.48;99953.03;3153710;28;20014;-63
2022/07/14 00:43:09;;;;;;;;;;;;;;;20.41;41.42;99949.56;3153721;28;20428;-63
2022/07/14 00:44:39;;;;;;;;;;;;;;;20.43;41.49;99952.91;3153833;28;19928;-63
2022/07/14 00:46:11;;;;;;;;;;;;;;;20.42;41.54;99947.75;3154005;28;19928;-63
2022/07/14 00:47:43;;;;;;;;;;;;;;;20.41;41.63;99951.38;3153434;28;19935;-63
2022/07/14 00:49:30;;;;;;;;;;;;;;;20.39;41.42;99951.50;3153908;28;19970;-63
2022/07/14 00:51:01;;;;;;;;;;;;;;;20.41;41.49;99948.75;3154597;27;19935;-63
2022/07/14 00:52:32;;;;;;;;;;;;;;;20.42;41.59;99953.03;3153562;28;19928;-63
2022/07/14 00:54:03;;;;;;;;;;;;;;;20.40;41.67;99955.81;3153871;28;19935;-63
2022/07/14 00:55:35;;;;;;;;;;;;;;;20.38;41.56;99947.19;3153601;28;19928;-63
2022/07/14 00:57:06;;;;;;;;;;;;;;;20.37;41.72;99953.41;3153562;28;19932;-63
2022/07/14 00:58:38;;;;;;;;;;;;;;;20.35;41.92;99946.56;3153874;28;19928;-63
2022/07/14 01:00:11;;;;;;;;;;;;;;;20.31;42.08;99953.09;3153929;28;20411;-63
2022/07/14 01:01:42;;;;;;;;;;;;;;;20.30;42.10;99956.72;3153639;28;20413;-64
2022/07/14 01:03:15;;;;;;;;;;;;;;;20.28;42.32;99948.91;3153620;28;19951;-64
2022/07/14 01:04:47;;;;;;;;;;;;;;;20.29;42.08;99960.31;3153488;28;19960;-64
2022/07/14 01:06:19;;;;;;;;;;;;;;;20.27;41.91;99949.88;3153668;28;19932;-64
2022/07/14 01:07:50;;;;;;;;;;;;;;;20.28;41.91;99953.34;3153888;28;20431;-64
2022/07/14 01:09:22;;;;;;;;;;;;;;;20.28;42.00;99946.25;3153443;28;20322;-64
2022/07/14 01:10:54;;;;;;;;;;;;;;;20.27;42.03;99951.69;3153554;28;19977;-64
2022/07/14 01:12:25;;;;;;;;;;;;;;;20.27;42.15;99952.53;3153711;28;19928;-63
2022/07/14 01:13:58;;;;;;;;;;;;;;;20.26;42.02;99950.00;3153648;28;19986;-64
2022/07/14 01:15:30;;;;;;;;;;;;;;;20.28;41.87;99948.06;3153725;28;19928;-64
2022/07/14 01:17:01;;;;;;;;;;;;;;;20.31;41.87;99953.09;3153630;28;19928;-64
2022/07/14 01:18:34;;;;;;;;;;;;;;;20.28;41.98;99948.91;3153331;28;20400;-64
2022/07/14 01:20:06;;;;;;;;;;;;;;;20.27;42.05;99946.41;3153912;28;19947;-64
2022/07/14 01:21:38;;;;;;;;;;;;;;;20.28;42.28;99948.06;3153286;28;19982;-64
2022/07/14 01:23:10;;;;;;;;;;;;;;;20.28;41.81;99951.53;3153311;28;20018;-63
2022/07/14 01:24:42;;;;;;;;;;;;;;;20.33;41.62;99945.88;3153883;28;19928;-64
2022/07/14 01:26:13;;;;;;;;;;;;;;;20.34;41.86;99944.91;3153556;28;19928;-63
2022/07/14 01:27:44;;;;;;;;;;;;;;;20.35;41.90;99949.22;3153240;28;20372;-64
2022/07/14 01:29:16;;;;;;;;;;;;;;;20.37;41.47;99947.31;3153645;28;19928;-64
2022/07/14 01:30:47;;;;;;;;;;;;;;;20.40;41.67;99944.41;3153263;28;19928;-63
2022/07/14 01:32:19;;;;;;;;;;;;;;;20.42;41.48;99945.13;3153564;28;19939;-64
2022/07/14 01:33:50;;;;;;;;;;;;;;;20.43;41.56;99942.31;3153465;28;20370;-65
2022/07/14 01:35:21;;;;;;;;;;;;;;;20.44;41.56;99940.53;3144534;28;20039;-65
2022/07/14 01:36:54;;;;;;;;;;;;;;;20.44;41.48;99948.47;3149439;28;19928;-65
2022/07/14 01:38:26;;;;;;;;;;;;;;;20.44;41.65;99943.19;3157822;28;20348;-64
2022/07/14 01:39:56;;;;;;;;;;;;;;;20.44;41.70;99948.47;3159800;28;19936;-65
2022/07/14 01:41:28;;;;;;;;;;;;;;;20.43;41.66;99941.50;3152627;28;19935;-65
2022/07/14 01:42:59;;;;;;;;;;;;;;;20.43;41.68;99947.63;3153166;28;19928;-65
2022/07/14 01:44:30;;;;;;;;;;;;;;;20.43;41.59;99947.63;3153133;28;19936;-65
2022/07/14 01:46:01;;;;;;;;;;;;;;;20.44;41.58;99951.97;3152886;28;20018;-65
2022/07/14 01:47:33;;;;;;;;;;;;;;;20.44;41.40;99948.47;3152289;28;19928;-64
2022/07/14 01:49:05;;;;;;;;;;;;;;;20.45;41.53;99942.22;3153186;28;20312;-63
2022/07/14 01:50:36;;;;;;;;;;;;;;;20.46;41.37;99950.00;3152973;28;19935;-64
2022/07/14 01:52:09;;;;;;;;;;;;;;;20.48;41.21;99949.88;3153265;28;20398;-64
2022/07/14 01:53:41;;;;;;;;;;;;;;;20.49;41.19;99951.56;3153140;28;19939;-64
2022/07/14 01:55:13;;;;;;;;;;;;;;;20.51;41.36;99949.63;3152921;28;20022;-65
2022/07/14 01:56:44;;;;;;;;;;;;;;;20.50;41.22;99941.81;3153011;28;19935;-64
2022/07/14 01:58:15;;;;;;;;;;;;;;;20.55;41.26;99952.88;3153244;28;19928;-62
2022/07/14 01:59:46;;;;;;;;;;;;;;;20.57;41.09;99948.31;3154598;28;19942;-64
2022/07/14 02:03:07;;;;;;;;;;;;;;;20.57;41.05;99950.94;3148047;28;19928;-63
2022/07/14 02:04:39;;;;;;;;;;;;;;;20.56;41.06;99952.75;3148838;28;19928;-64
2022/07/14 02:06:10;;;;;;;;;;;;;;;20.55;41.26;99955.53;3149260;28;20268;-64
2022/07/14 02:07:44;;;;;;;;;;;;;;;20.54;41.15;99957.34;3148234;28;19928;-63
2022/07/14 02:09:14;;;;;;;;;;;;;;;20.55;41.32;99960.81;3148610;28;19928;-64
2022/07/14 02:12:43;;;;;;;;;;;;;;;20.53;41.27;99954.81;3121972;28;19929;-65
2022/07/14 02:14:13;;;;;;;;;;;;;;;20.51;41.22;99954.91;3144985;28;19951;-63
2022/07/14 02:15:45;;;;;;;;;;;;;;;20.50;41.38;99957.69;3152576;28;19943;-63
2022/07/14 02:17:15;;;;;;;;;;;;;;;20.49;41.33;99956.84;3152904;28;20251;-62
2022/07/14 02:18:47;;;;;;;;;;;;;;;20.45;41.41;99958.91;3152974;28;20032;-63
2022/07/14 02:20:19;;;;;;;;;;;;;;;20.45;41.29;99950.97;3152674;28;19949;-63
2022/07/14 02:21:51;;;;;;;;;;;;;;;20.45;41.46;99958.91;3152484;28;19928;-63
2022/07/14 02:23:24;;;;;;;;;;;;;;;20.45;41.44;99958.09;3152658;28;20358;-63
2022/07/14 02:24:55;;;;;;;;;;;;;;;20.46;41.51;99959.75;3152697;28;20114;-63
2022/07/14 02:26:27;;;;;;;;;;;;;;;20.45;41.41;99961.56;3152781;28;19928;-63
2022/07/14 02:27:58;;;;;;;;;;;;;;;20.44;41.57;99957.25;3152856;28;19957;-63
2022/07/14 02:29:30;;;;;;;;;;;;;;;20.43;41.40;99957.38;3152659;28;19970;-63
2022/07/14 02:31:01;;;;;;;;;;;;;;;20.46;41.22;99959.75;3152787;28;19943;-63
2022/07/14 02:32:33;;;;;;;;;;;;;;;20.47;41.55;99964.09;3152730;28;19928;-64
2022/07/14 02:34:05;;;;;;;;;;;;;;;20.48;41.36;99959.63;3152784;28;19928;-64
2022/07/14 02:35:36;;;;;;;;;;;;;;;20.46;41.37;99963.22;3142109;28;19932;-64
2022/07/14 02:37:07;;;;;;;;;;;;;;;20.44;41.51;99962.53;3151059;28;19982;-64
2022/07/14 02:38:39;;;;;;;;;;;;;;;20.42;41.51;99968.91;3158659;28;19928;-63
2022/07/14 02:40:12;;;;;;;;;;;;;;;20.41;41.49;99968.09;3156964;28;20142;-63
2022/07/14 02:41:43;;;;;;;;;;;;;;;20.42;41.53;99968.91;3152789;28;19932;-63
2022/07/14 02:43:14;;;;;;;;;;;;;;;20.42;41.40;99971.56;3152623;28;19928;-64
2022/07/14 02:44:46;;;;;;;;;;;;;;;20.45;41.08;99968.66;3152815;28;19940;-64
2022/07/14 02:46:17;;;;;;;;;;;;;;;20.50;40.94;99962.97;3152706;28;20564;-64
2022/07/14 02:47:49;;;;;;;;;;;;;;;20.50;41.21;99976.19;3152850;28;20321;-64
2022/07/14 02:49:21;;;;;;;;;;;;;;;20.52;41.12;99963.69;3152759;28;20008;-64
2022/07/14 02:50:58;;;;;;;;;;;;;;;20.51;41.10;99970.78;3152726;28;19928;-64
2022/07/14 02:52:30;;;;;;;;;;;;;;;20.49;41.21;99974.53;3152832;28;19927;-64
2022/07/14 02:54:02;;;;;;;;;;;;;;;20.52;40.87;99966.34;3153113;28;19981;-64
2022/07/14 02:55:35;;;;;;;;;;;;;;;20.51;40.82;99964.66;3152219;28;19971;-63
2022/07/14 02:57:06;;;;;;;;;;;;;;;20.51;40.87;99967.31;3152507;28;20419;-63
2022/07/14 02:58:38;;;;;;;;;;;;;;;20.50;40.96;99969.13;3152748;28;20456;-62
2022/07/14 03:00:10;;;;;;;;;;;;;;;20.51;41.03;99968.16;3152637;28;20340;-63
2022/07/14 03:01:41;;;;;;;;;;;;;;;20.54;40.85;99970.56;3152914;28;19928;-63
2022/07/14 03:03:13;;;;;;;;;;;;;;;20.57;40.74;99974.75;3152412;28;20006;-63
2022/07/14 03:04:45;;;;;;;;;;;;;;;20.59;40.81;99973.66;3152367;28;19928;-63
2022/07/14 03:06:17;;;;;;;;;;;;;;;20.60;40.62;99983.28;3152936;28;19935;-63
2022/07/14 03:07:48;;;;;;;;;;;;;;;20.60;40.91;99977.97;3152695;28;20430;-63
2022/07/14 03:09:21;;;;;;;;;;;;;;;20.57;40.90;99980.06;3152519;28;19940;-65
2022/07/14 03:10:52;;;;;;;;;;;;;;;20.54;40.87;99975.03;3152780;28;19928;-63
2022/07/14 03:12:24;;;;;;;;;;;;;;;20.52;41.03;99983.06;3152641;28;19928;-63
2022/07/14 03:13:55;;;;;;;;;;;;;;;20.50;40.94;99979.72;3152590;28;19928;-63
2022/07/14 03:15:26;;;;;;;;;;;;;;;20.48;40.97;99978.16;3152695;28;19928;-63
2022/07/14 03:16:57;;;;;;;;;;;;;;;20.48;40.81;99984.28;3152698;28;20065;-63
2022/07/14 03:18:29;;;;;;;;;;;;;;;20.50;41.00;99987.66;3152594;28;19935;-63
2022/07/14 03:20:01;;;;;;;;;;;;;;;20.51;41.07;99978.72;3152698;28;19951;-63
2022/07/14 03:21:33;;;;;;;;;;;;;;;20.49;41.10;99983.28;3152241;28;19938;-63
2022/07/14 03:23:04;;;;;;;;;;;;;;;20.48;40.97;99984.28;3152061;28;19928;-63
2022/07/14 03:24:37;;;;;;;;;;;;;;;20.47;40.97;99985.25;3152582;28;19928;-63
2022/07/14 03:26:09;;;;;;;;;;;;;;;20.46;41.04;99979.09;3152754;28;19943;-63
2022/07/14 03:27:41;;;;;;;;;;;;;;;20.46;41.16;99978.25;3152511;28;19928;-63
2022/07/14 03:29:13;;;;;;;;;;;;;;;20.47;40.98;99972.03;3152789;28;19985;-63
2022/07/14 03:30:43;;;;;;;;;;;;;;;20.50;41.05;99985.00;3152595;28;19931;-63
2022/07/14 03:32:15;;;;;;;;;;;;;;;20.51;41.07;99976.09;3152472;28;20019;-63
2022/07/14 03:33:47;;;;;;;;;;;;;;;20.53;41.04;99975.97;3153417;28;19928;-63
2022/07/14 03:35:17;;;;;;;;;;;;;;;20.53;40.85;99974.19;3146688;28;20314;-63
2022/07/14 03:36:49;;;;;;;;;;;;;;;20.54;40.94;99981.16;3154197;28;19935;-63
2022/07/14 03:38:20;;;;;;;;;;;;;;;20.53;40.98;99984.78;3164177;28;19935;-62
2022/07/14 03:39:53;;;;;;;;;;;;;;;20.54;41.06;99980.31;3154328;28;19928;-63
2022/07/14 03:41:25;;;;;;;;;;;;;;;20.51;41.12;99986.66;3154337;28;19935;-63
2022/07/14 03:42:55;;;;;;;;;;;;;;;20.50;41.26;99982.34;3154722;28;20067;-63
2022/07/14 03:44:27;;;;;;;;;;;;;;;20.50;41.43;99981.50;3154621;28;20014;-63
2022/07/14 03:45:57;;;;;;;;;;;;;;;20.51;41.15;99983.19;3145897;28;20329;-62
2022/07/14 03:47:29;;;;;;;;;;;;;;;20.49;41.30;99982.47;3150215;28;19928;-62
2022/07/14 03:49:01;;;;;;;;;;;;;;;20.47;41.47;99974.66;3154539;28;19951;-63
2022/07/14 03:50:32;;;;;;;;;;;;;;;20.49;41.42;99980.66;3154383;28;20018;-64
2022/07/14 03:52:03;;;;;;;;;;;;;;;20.48;41.58;99980.78;3156068;28;19928;-64
2022/07/14 03:53:35;;;;;;;;;;;;;;;20.50;41.35;99978.84;3149993;28;19935;-64
2022/07/14 03:55:08;;;;;;;;;;;;;;;20.52;41.31;99977.78;3150826;28;19936;-65
2022/07/14 03:56:40;;;;;;;;;;;;;;;20.54;41.49;99981.16;3154465;28;19935;-64
2022/07/14 03:58:12;;;;;;;;;;;;;;;20.56;41.28;99981.88;3142857;28;19929;-63
2022/07/14 03:59:42;;;;;;;;;;;;;;;20.58;41.22;99977.25;3151970;28;19928;-63
2022/07/14 04:01:14;;;;;;;;;;;;;;;20.62;41.17;99983.16;3154099;28;19974;-63
2022/07/14 04:02:45;;;;;;;;;;;;;;;20.64;41.11;99979.38;3154131;28;19931;-64
2022/07/14 04:04:17;;;;;;;;;;;;;;;20.67;41.12;99991.53;3154235;28;19927;-64
2022/07/14 04:05:48;;;;;;;;;;;;;;;20.67;41.03;99987.09;3154383;28;20001;-62
2022/07/14 04:07:19;;;;;;;;;;;;;;;20.67;40.94;99984.44;3145212;28;19940;-62
2022/07/14 04:08:50;;;;;;;;;;;;;;;20.72;41.09;99991.16;3148656;28;19928;-62
2022/07/14 04:10:23;;;;;;;;;;;;;;;20.73;40.99;99991.00;3154103;28;19928;-62
2022/07/14 04:11:55;;;;;;;;;;;;;;;20.73;41.00;99995.47;3154182;28;19986;-63
2022/07/14 04:13:29;;;;;;;;;;;;;;;20.74;41.00;99991.88;3154391;28;19932;-62
2022/07/14 04:15:00;;;;;;;;;;;;;;;20.71;41.54;99992.97;3154339;28;19974;-62
2022/07/14 04:16:31;;;;;;;;;;;;;;;20.72;41.70;99994.63;3153978;28;19928;-62
2022/07/14 04:18:02;;;;;;;;;;;;;;;20.70;41.55;100001.03;3148549;28;19928;-62
2022/07/14 04:19:34;;;;;;;;;;;;;;;20.69;41.57;99994.91;3145662;28;20384;-62
2022/07/14 04:21:07;;;;;;;;;;;;;;;20.70;41.55;100001.84;3154073;28;20356;-62
2022/07/14 04:22:39;;;;;;;;;;;;;;;20.65;41.42;99986.38;3154584;28;19935;-62
2022/07/14 04:24:10;;;;;;;;;;;;;;;20.70;41.50;99998.38;3154397;28;19935;-61
2022/07/14 04:25:43;;;;;;;;;;;;;;;20.70;41.36;99993.91;3148069;28;20329;-61
2022/07/14 04:27:14;;;;;;;;;;;;;;;20.73;41.40;99998.13;3141431;28;19978;-62
2022/07/14 04:28:45;;;;;;;;;;;;;;;20.76;41.35;100000.50;3141287;28;19929;-62
2022/07/14 04:30:17;;;;;;;;;;;;;;;20.78;41.37;99994.13;3141501;28;19928;-62
2022/07/14 04:31:49;;;;;;;;;;;;;;;20.83;41.16;99999.88;3141731;28;19936;-64
2022/07/14 04:33:21;;;;;;;;;;;;;;;20.86;41.06;99996.13;3147830;28;20460;-63
2022/07/14 04:34:53;;;;;;;;;;;;;;;20.87;41.07;100003.91;3152813;28;20384;-63
2022/07/14 04:36:24;;;;;;;;;;;;;;;20.90;40.91;100001.00;3163057;28;20328;-63
2022/07/14 04:37:56;;;;;;;;;;;;;;;20.92;40.88;99998.25;3149307;28;19928;-63
2022/07/14 04:39:26;;;;;;;;;;;;;;;20.97;40.89;99995.19;3153933;28;19928;-64
2022/07/14 04:41:00;;;;;;;;;;;;;;;20.99;40.80;100012.63;3154290;28;19962;-65
2022/07/14 04:42:32;;;;;;;;;;;;;;;21.02;41.12;100007.06;3154259;28;20559;-62
2022/07/14 04:44:03;;;;;;;;;;;;;;;21.05;41.08;100006.81;3153333;28;19932;-62
2022/07/14 04:45:35;;;;;;;;;;;;;;;21.07;41.03;100004.88;3153968;28;19928;-62
2022/07/14 04:47:07;;;;;;;;;;;;;;;21.11;40.98;100005.44;3154083;28;19932;-66
2022/07/14 04:52:12;;;;;;;;;;;;;;;21.21;41.46;100005.47;3154184;28;19928;-65
2022/07/14 04:55:23;;;;;;;;;;;;;;;21.25;41.62;100013.03;3154566;28;19928;-66
2022/07/14 04:57:49;;;;;;;;;;;;;;;21.41;41.27;100022.34;3153122;28;19928;-68
2022/07/14 04:59:20;;;;;;;;;;;;;;;21.47;40.99;100022.63;3153300;28;19928;-67
2022/07/14 05:00:51;;;;;;;;;;;;;;;21.52;41.02;100027.53;3153634;28;19928;-64
2022/07/14 05:02:23;;;;;;;;;;;;;;;21.57;41.08;100020.88;3153320;28;19932;-67
2022/07/14 05:03:54;;;;;;;;;;;;;;;21.64;40.77;100022.97;3152438;28;20792;-67
2022/07/14 05:05:25;;;;;;;;;;;;;;;21.68;40.68;100025.25;3153796;28;19928;-67
2022/07/14 05:06:57;;;;;;;;;;;;;;;21.74;40.44;100022.03;3153603;28;19928;-67
2022/07/14 05:08:29;;;;;;;;;;;;;;;21.78;40.61;100019.97;3153802;28;19928;-65
2022/07/14 05:10:00;;;;;;;;;;;;;;;21.84;40.79;100030.00;3153832;28;19928;-65
2022/07/14 05:11:31;;;;;;;;;;;;;;;21.88;40.41;100025.28;3153568;28;20496;-66
2022/07/14 05:13:04;;;;;;;;;;;;;;;21.91;40.16;100027.66;3153609;28;20413;-64
2022/07/14 05:14:35;;;;;;;;;;;;;;;21.94;40.27;100025.56;3153476;28;19939;-64
2022/07/14 05:16:06;;;;;;;;;;;;;;;22.00;40.22;100022.34;3153592;28;20379;-67
2022/07/14 05:17:38;;;;;;;;;;;;;;;22.08;40.33;100031.44;3153679;28;20027;-68
2022/07/14 05:19:10;;;;;;;;;;;;;;;22.14;39.76;100025.59;3153773;28;19928;-65
2022/07/14 05:20:41;;;;;;;;;;;;;;;22.19;39.94;100028.72;3153726;28;19993;-63
2022/07/14 05:22:13;;;;;;;;;;;;;;;22.25;39.63;100029.00;3153851;28;19928;-66
2022/07/14 05:23:44;;;;;;;;;;;;;;;22.30;39.39;100025.91;3153429;28;20245;-67
2022/07/14 05:25:16;;;;;;;;;;;;;;;22.34;39.23;100037.94;3152695;28;19981;-66
2022/07/14 05:26:47;;;;;;;;;;;;;;;22.39;39.12;100027.75;3153250;28;20004;-64
2022/07/14 05:28:19;;;;;;;;;;;;;;;22.44;39.05;100033.44;3153389;28;19932;-66
2022/07/14 05:29:51;;;;;;;;;;;;;;;22.49;38.83;100035.69;3153108;28;19928;-67
2022/07/14 05:31:23;;;;;;;;;;;;;;;22.53;38.70;100039.72;3153202;28;20428;-67
2022/07/14 05:32:56;;;;;;;;;;;;;;;22.57;38.74;100032.31;3148683;28;19933;-66
2022/07/14 05:34:29;;;;;;;;;;;;;;;22.61;38.70;100039.88;3150247;28;20510;-67
2022/07/14 05:35:59;;;;;;;;;;;;;;;22.67;38.58;100041.13;3157721;28;20417;-64
2022/07/14 05:37:31;;;;;;;;;;;;;;;22.73;38.29;100042.38;3152156;28;19935;-66
2022/07/14 05:39:03;;;;;;;;;;;;;;;22.77;38.28;100047.25;3152104;28;19928;-66
2022/07/14 05:40:34;;;;;;;;;;;;;;;22.80;38.16;100040.84;3152608;28;20023;-65
2022/07/14 05:42:06;;;;;;;;;;;;;;;22.84;38.02;100043.06;3152765;28;20462;-63
2022/07/14 05:43:39;;;;;;;;;;;;;;;22.88;37.96;100039.13;3152843;28;20341;-62
2022/07/14 05:45:11;;;;;;;;;;;;;;;22.91;37.67;100048.66;3153806;28;19935;-63
2022/07/14 05:46:42;;;;;;;;;;;;;;;22.90;37.53;100037.19;3148914;28;19928;-63
2022/07/14 05:48:13;;;;;;;;;;;;;;;23.00;37.37;100047.81;3147585;28;19939;-66
2022/07/14 05:49:45;;;;;;;;;;;;;;;23.06;37.30;100043.75;3148187;28;20110;-68
2022/07/14 05:51:17;;;;;;;;;;;;;;;23.11;37.57;100042.34;3150351;28;19977;-68
2022/07/14 05:52:51;;;;;;;;;;;;;;;23.15;37.24;100050.84;3156231;28;19927;-69
2022/07/14 05:54:26;;;;;;;;;;;;;;;23.20;37.15;100051.28;3158528;28;19928;-69
2022/07/14 05:56:00;;;;;;;;;;;;;;;23.28;37.15;100047.88;3157239;28;19924;-68
2022/07/14 05:57:31;;;;;;;;;;;;;;;23.35;37.01;100048.97;3158390;28;19936;-71
2022/07/14 05:59:04;;;;;;;;;;;;;;;23.43;37.06;100051.75;3158431;28;19932;-72
2022/07/14 06:00:36;;;;;;;;;;;;;;;23.50;36.73;100049.34;3158065;28;19924;-72
2022/07/14 06:02:07;;;;;;;;;;;;;;;23.53;36.73;100051.72;3157889;28;20656;-72
2022/07/14 06:03:39;;;;;;;;;;;;;;;23.58;36.62;100044.13;3148602;28;19940;-74
2022/07/14 06:05:11;;;;;;;;;;;;;;;23.63;36.67;100047.16;3157573;28;19977;-75
2022/07/14 06:06:45;;;;;;;;;;;;;;;23.69;36.11;100051.91;3158350;28;19931;-73
2022/07/14 06:08:15;;;;;;;;;;;;;;;23.70;35.75;100055.44;3158317;28;19931;-73
2022/07/14 06:09:49;;;;;;;;;;;;;;;23.73;35.83;100044.53;3158339;28;19924;-72
2022/07/14 06:11:20;;;;;;;;;;;;;;;23.77;35.60;100048.53;3158283;28;20258;-72
2022/07/14 06:12:52;;;;;;;;;;;;;;;23.77;35.44;100043.22;3158040;28;20338;-72
2022/07/14 06:14:25;;;;;;;;;;;;;;;23.84;35.57;100053.13;3158665;28;19928;-72
2022/07/14 06:15:57;;;;;;;;;;;;;;;23.89;35.43;100054.50;3158424;28;19931;-73
2022/07/14 06:17:29;;;;;;;;;;;;;;;23.93;35.34;100050.53;3158071;28;19928;-72
2022/07/14 06:19:00;;;;;;;;;;;;;;;23.95;35.15;100051.25;3157563;28;20416;-73
2022/07/14 06:20:32;;;;;;;;;;;;;;;23.97;34.97;100046.63;3157893;28;20317;-73
2022/07/14 06:22:04;;;;;;;;;;;;;;;24.00;34.98;100041.00;3158173;28;19931;-72
2022/07/14 06:23:35;;;;;;;;;;;;;;;24.02;34.98;100049.66;3158203;28;19935;-74
2022/07/14 06:25:07;;;;;;;;;;;;;;;24.06;35.03;100043.06;3158023;28;19924;-76
2022/07/14 06:26:40;;;;;;;;;;;;;;;24.09;35.09;100045.41;3158254;28;19934;-76
2022/07/14 06:28:11;;;;;;;;;;;;;;;24.12;35.21;100042.44;3158214;28;20396;-70
2022/07/14 06:29:44;;;;;;;;;;;;;;;24.18;35.28;100044.50;3158002;28;20041;-74
2022/07/14 06:31:16;;;;;;;;;;;;;;;24.23;35.36;100036.09;3158047;28;19924;-76
2022/07/14 06:32:48;;;;;;;;;;;;;;;24.25;35.25;100042.06;3157967;28;20390;-78
2022/07/14 06:34:19;;;;;;;;;;;;;;;24.28;35.14;100039.09;3157730;28;20313;-71
2022/07/14 06:35:51;;;;;;;;;;;;;;;24.30;34.84;100032.66;3164534;28;20500;-72
2022/07/14 06:37:23;;;;;;;;;;;;;;;24.39;34.91;100033.56;3158131;28;19931;-73
2022/07/14 06:38:55;;;;;;;;;;;;;;;24.43;34.38;100034.97;3158417;28;19931;-71
2022/07/14 06:40:26;;;;;;;;;;;;;;;24.46;34.54;100033.81;3158024;28;19928;-72
2022/07/14 06:41:58;;;;;;;;;;;;;;;24.52;34.47;100030.53;3158234;28;19923;-72
2022/07/14 06:43:29;;;;;;;;;;;;;;;24.58;34.51;100031.75;3157667;28;19978;-72
2022/07/14 06:45:03;;;;;;;;;;;;;;;24.64;34.04;100031.13;3157835;28;19925;-75
2022/07/14 06:46:38;;;;;;;;;;;;;;;24.71;34.19;100032.19;3157779;28;20001;-69
2022/07/14 06:48:09;;;;;;;;;;;;;;;24.79;34.17;100028.75;3157963;28;19928;-70
2022/07/14 06:49:41;;;;;;;;;;;;;;;24.84;34.10;100027.28;3157998;28;19924;-69
2022/07/14 06:51:13;;;;;;;;;;;;;;;24.91;34.12;100027.53;3158188;28;19928;-68
2022/07/14 06:52:45;;;;;;;;;;;;;;;24.99;34.17;100016.91;3157953;28;20301;-69
2022/07/14 06:54:16;;;;;;;;;;;;;;;25.12;34.31;100024.50;3157840;28;19924;-69
2022/07/14 06:55:48;;;;;;;;;;;;;;;25.22;34.22;100019.91;3157098;28;20003;-70
2022/07/14 06:57:20;;;;;;;;;;;;;;;25.30;33.78;100016.44;3156895;28;19924;-69
2022/07/14 06:58:51;;;;;;;;;;;;;;;25.38;33.62;100014.66;3156784;28;19946;-69
2022/07/14 07:00:24;;;;;;;;;;;;;;;25.45;33.68;100014.84;3157141;28;20411;-69
2022/07/14 07:01:55;;;;;;;;;;;;;;;25.52;33.42;100013.19;3157288;28;19928;-71
2022/07/14 07:03:27;;;;;;;;;;;;;;;25.60;33.65;100013.25;3156649;28;20015;-69
2022/07/14 07:06:47;;;;;;;;;;;;;;;25.79;33.08;100013.97;3157083;28;19924;-67
2022/07/14 07:08:18;;;;;;;;;;;;;;;25.86;32.70;100007.03;3159359;28;19932;-67
2022/07/14 07:09:49;;;;;;;;;;;;;;;25.93;32.50;100005.38;3154717;28;20419;-68
2022/07/14 07:11:21;;;;;;;;;;;;;;;25.97;32.23;100006.72;3148428;28;19925;-66
2022/07/14 07:12:53;;;;;;;;;;;;;;;26.09;32.37;100005.41;3159969;28;19998;-67
2022/07/14 07:14:25;;;;;;;;;;;;;;;26.17;32.33;100009.06;3159185;28;20477;-67
2022/07/14 07:15:58;;;;;;;;;;;;;;;26.23;31.77;100006.56;3159050;28;19924;-67
2022/07/14 07:17:29;;;;;;;;;;;;;;;26.27;32.07;100001.75;3158774;28;19988;-67
2022/07/14 07:19:01;;;;;;;;;;;;;;;26.32;32.00;99996.72;3158720;28;19932;-67
2022/07/14 07:20:33;;;;;;;;;;;;;;;26.45;31.81;100002.44;3159215;28;19924;-66
2022/07/14 07:22:04;;;;;;;;;;;;;;;26.53;31.90;100006.94;3158901;28;19928;-66
2022/07/14 07:23:36;;;;;;;;;;;;;;;26.58;31.48;100003.78;3159205;28;19939;-66
2022/07/14 07:25:08;;;;;;;;;;;;;;;26.66;31.87;100009.97;3159234;28;19973;-68
2022/07/14 07:26:41;;;;;;;;;;;;;;;26.74;31.63;100004.63;3159133;28;19924;-66
2022/07/14 07:28:12;;;;;;;;;;;;;;;26.80;31.44;100000.44;3159534;28;19931;-66
2022/07/14 07:29:46;;;;;;;;;;;;;;;26.88;31.01;100002.25;3159941;28;19928;-66
2022/07/14 07:31:19;;;;;;;;;;;;;;;26.93;30.94;100002.56;3160232;28;19924;-66
2022/07/14 07:32:50;;;;;;;;;;;;;;;26.99;30.50;100009.91;3157419;28;20016;-66
2022/07/14 07:34:22;;;;;;;;;;;;;;;27.02;30.64;100003.38;3159368;28;19994;-66
2022/07/14 07:35:54;;;;;;;;;;;;;;;27.08;30.71;100008.06;3160085;28;19928;-66
2022/07/14 07:37:25;;;;;;;;;;;;;;;27.12;30.46;100007.53;3159742;28;19924;-66
2022/07/14 07:38:57;;;;;;;;;;;;;;;27.14;30.66;100004.69;3160099;28;19924;-66
2022/07/14 07:40:28;;;;;;;;;;;;;;;27.12;30.27;100006.69;3159629;28;19924;-69
2022/07/14 07:42:01;;;;;;;;;;;;;;;27.12;30.22;100004.03;3160059;28;20048;-68
2022/07/14 07:43:32;;;;;;;;;;;;;;;27.15;30.15;99998.34;3160409;28;20022;-69
2022/07/14 07:45:04;;;;;;;;;;;;;;;27.19;29.84;100003.19;3147603;28;19928;-68
2022/07/14 07:46:37;;;;;;;;;;;;;;;27.27;30.38;99990.81;3156500;28;20414;-66
2022/07/14 07:48:09;;;;;;;;;;;;;;;27.35;30.23;99991.59;3154928;28;19932;-67
2022/07/14 07:49:41;;;;;;;;;;;;;;;27.40;29.99;99986.59;3154847;28;19928;-67
2022/07/14 07:51:12;;;;;;;;;;;;;;;27.49;29.41;99989.22;3154786;28;19928;-68
2022/07/14 07:52:44;;;;;;;;;;;;;;;27.57;29.52;99987.34;3154753;28;20016;-63
2022/07/14 07:54:16;;;;;;;;;;;;;;;27.65;29.96;99981.09;3154699;28;20008;-63
2022/07/14 07:55:47;;;;;;;;;;;;;;;27.76;29.88;99982.56;3154727;28;19928;-64
2022/07/14 07:57:19;;;;;;;;;;;;;;;27.79;29.29;99977.72;3153788;28;19932;-63
2022/07/14 07:58:51;;;;;;;;;;;;;;;27.83;29.30;99983.53;3154478;28;19928;-63
2022/07/14 08:00:23;;;;;;;;;;;;;;;27.85;28.77;99971.66;3154862;28;19928;-64
2022/07/14 08:01:56;;;;;;;;;;;;;;;27.92;29.22;99979.78;3143884;28;19997;-63
2022/07/14 08:03:28;;;;;;;;;;;;;;;28.06;28.87;99978.22;3143902;28;19927;-65
2022/07/14 08:05:00;;;;;;;;;;;;;;;28.16;28.84;99970.78;3149524;28;20006;-64
2022/07/14 08:06:32;;;;;;;;;;;;;;;28.29;28.48;99978.22;3154587;28;19928;-65